createdAt,value
2018-03-20T00:02:07.835Z,78.40
2018-03-20T00:04:35.467Z,78.40
2018-03-20T00:07:03.059Z,77.90
2018-03-20T00:09:30.648Z,77.70
2018-03-20T00:11:58.238Z,77.40
2018-03-20T00:14:25.825Z,76.80
2018-03-20T00:16:53.410Z,76.30
2018-03-20T00:19:21.768Z,76.30
2018-03-20T00:21:49.398Z,76.30
2018-03-20T00:24:16.981Z,75.10
2018-03-20T00:26:44.567Z,74.80
2018-03-20T00:29:12.148Z,74.60
2018-03-20T00:31:40.501Z,73.50
2018-03-20T00:34:08.104Z,73.50
2018-03-20T00:36:36.498Z,72.70
2018-03-20T00:39:04.118Z,72.70
2018-03-20T00:41:31.699Z,71.90
2018-03-20T00:43:59.279Z,72.00
2018-03-20T00:46:27.628Z,72.70
2018-03-20T00:48:55.212Z,72.70
2018-03-20T00:51:23.562Z,72.50
2018-03-20T00:53:51.141Z,72.50
2018-03-20T00:56:18.746Z,72.10
2018-03-20T00:58:46.370Z,72.00
2018-03-20T01:01:13.975Z,72.10
2018-03-20T01:03:41.615Z,72.50
2018-03-20T01:06:09.198Z,72.50
2018-03-20T01:08:37.545Z,72.60
2018-03-20T01:11:05.130Z,72.60
2018-03-20T01:13:32.719Z,72.50
2018-03-20T01:16:00.319Z,72.40
2018-03-20T01:18:27.907Z,71.20
2018-03-20T01:20:55.494Z,71.10
2018-03-20T01:23:23.839Z,70.60
2018-03-20T01:25:51.428Z,70.60
2018-03-20T01:28:19.016Z,71.20
2018-03-20T01:30:47.358Z,70.30
2018-03-20T01:33:14.939Z,70.30
2018-03-20T01:35:42.548Z,70.40
2018-03-20T01:38:10.130Z,70.30
2018-03-20T01:40:37.715Z,70.70
2018-03-20T01:43:05.305Z,71.30
2018-03-20T01:45:32.888Z,71.20
2018-03-20T01:48:00.482Z,71.30
2018-03-20T01:50:28.066Z,71.30
2018-03-20T01:53:07.687Z,71.30
2018-03-20T01:55:35.278Z,70.70
2018-03-20T01:58:02.858Z,71.10
2018-03-20T02:00:30.463Z,71.00
2018-03-20T02:02:58.044Z,71.10
2018-03-20T02:05:25.630Z,71.00
2018-03-20T02:07:53.220Z,71.50
2018-03-20T02:10:20.810Z,72.00
2018-03-20T02:12:49.168Z,72.70
2018-03-20T02:15:16.762Z,72.80
2018-03-20T02:17:44.355Z,72.90
2018-03-20T02:20:11.934Z,73.60
2018-03-20T02:22:39.520Z,74.80
2018-03-20T02:25:07.124Z,74.60
2018-03-20T02:27:34.702Z,75.30
2018-03-20T02:30:02.283Z,75.90
2018-03-20T02:32:29.872Z,76.40
2018-03-20T02:34:57.471Z,76.80
2018-03-20T02:37:25.818Z,78.40
2018-03-20T02:39:53.416Z,78.40
2018-03-20T02:42:21.775Z,79.20
2018-03-20T02:44:49.366Z,79.20
2018-03-20T02:47:17.775Z,80.10
2018-03-20T02:49:46.156Z,80.50
2018-03-20T02:52:13.769Z,80.50
2018-03-20T02:54:41.362Z,80.60
2018-03-20T02:57:09.716Z,81.10
2018-03-20T02:59:37.311Z,81.00
2018-03-20T03:02:04.913Z,81.20
2018-03-20T03:04:32.502Z,81.50
2018-03-20T03:07:00.106Z,81.70
2018-03-20T03:09:27.731Z,81.70
2018-03-20T03:11:55.322Z,82.20
2018-03-20T03:14:22.914Z,82.40
2018-03-20T03:16:50.514Z,82.60
2018-03-20T03:19:18.147Z,82.80
2018-03-20T03:21:45.736Z,83.10
2018-03-20T03:24:13.318Z,83.40
2018-03-20T03:26:40.911Z,83.50
2018-03-20T03:29:08.506Z,83.50
2018-03-20T03:31:36.090Z,83.50
2018-03-20T03:34:03.731Z,83.60
2018-03-20T03:36:31.323Z,83.90
2018-03-20T03:38:58.918Z,84.00
2018-03-20T03:41:26.550Z,83.70
2018-03-20T03:43:54.146Z,83.90
2018-03-20T03:46:21.741Z,83.80
2018-03-20T03:48:50.103Z,84.30
2018-03-20T03:51:17.699Z,84.20
2018-03-20T03:53:45.311Z,84.10
2018-03-20T03:56:12.907Z,84.20
2018-03-20T03:58:40.496Z,83.90
2018-03-20T04:01:08.086Z,83.90
2018-03-20T04:03:35.682Z,83.90
2018-03-20T04:06:03.291Z,83.90
2018-03-20T04:08:30.883Z,83.70
2018-03-20T04:10:58.495Z,83.60
2018-03-20T04:13:26.086Z,84.20
2018-03-20T04:15:53.674Z,84.50
2018-03-20T04:18:21.270Z,84.30
2018-03-20T04:20:48.866Z,84.00
2018-03-20T04:23:17.222Z,83.80
2018-03-20T04:25:44.815Z,83.80
2018-03-20T04:28:13.203Z,84.00
2018-03-20T04:30:41.575Z,83.80
2018-03-20T04:33:09.939Z,83.70
2018-03-20T04:35:37.535Z,83.70
2018-03-20T04:38:05.887Z,84.40
2018-03-20T04:40:33.522Z,83.70
2018-03-20T04:43:01.106Z,83.70
2018-03-20T04:45:28.703Z,83.70
2018-03-20T04:47:57.064Z,83.20
2018-03-20T04:50:24.666Z,83.20
2018-03-20T04:52:52.259Z,83.20
2018-03-20T04:55:19.843Z,83.30
2018-03-20T04:57:47.435Z,83.70
2018-03-20T05:00:15.027Z,83.20
2018-03-20T05:02:42.619Z,82.70
2018-03-20T05:05:10.253Z,82.30
2018-03-20T05:07:37.827Z,81.80
2018-03-20T05:10:05.447Z,81.60
2018-03-20T05:12:33.040Z,81.30
2018-03-20T05:15:01.404Z,81.90
2018-03-20T05:17:29.024Z,81.80
2018-03-20T05:20:03.312Z,82.70
2018-03-20T05:22:37.218Z,82.60
2018-03-20T05:25:05.631Z,82.70
2018-03-20T05:27:33.239Z,82.70
2018-03-20T05:30:00.846Z,82.80
2018-03-20T05:32:28.472Z,82.80
2018-03-20T05:34:56.143Z,82.10
2018-03-20T05:37:23.756Z,82.00
2018-03-20T05:39:51.354Z,82.70
2018-03-20T05:42:18.970Z,81.90
2018-03-20T05:44:46.584Z,81.50
2018-03-20T05:47:24.103Z,81.30
2018-03-20T05:49:58.048Z,82.00
2018-03-20T05:52:25.671Z,81.30
2018-03-20T05:54:53.291Z,81.40
2018-03-20T05:57:20.883Z,81.20
2018-03-20T05:59:48.484Z,81.00
2018-03-20T06:02:16.108Z,80.90
2018-03-20T06:04:43.743Z,80.80
2018-03-20T06:07:11.356Z,80.20
2018-03-20T06:09:38.951Z,79.70
2018-03-20T06:12:06.552Z,79.80
2018-03-20T06:14:34.140Z,78.10
2018-03-20T06:17:01.732Z,77.00
2018-03-20T06:19:30.087Z,75.50
2018-03-20T06:21:57.682Z,75.40
2018-03-20T06:24:26.030Z,74.50
2018-03-20T06:26:53.622Z,74.60
2018-03-20T06:29:22.055Z,72.50
2018-03-20T06:31:49.635Z,72.50
2018-03-20T06:34:17.219Z,71.40
2018-03-20T06:36:46.309Z,69.90
2018-03-20T06:39:13.892Z,69.90
2018-03-20T06:41:41.474Z,69.90
2018-03-20T06:44:09.818Z,69.20
2018-03-20T06:46:37.406Z,69.10
2018-03-20T06:49:05.007Z,68.30
2018-03-20T06:51:32.590Z,68.70
2018-03-20T06:54:00.170Z,68.30
2018-03-20T06:56:27.754Z,68.00
2018-03-20T06:58:55.338Z,68.00
2018-03-20T07:01:23.702Z,68.10
2018-03-20T07:03:51.339Z,68.10
2018-03-20T07:06:18.922Z,67.20
2018-03-20T07:08:46.502Z,66.40
2018-03-20T07:11:14.091Z,67.70
2018-03-20T07:13:42.442Z,68.60
2018-03-20T07:16:10.031Z,68.60
2018-03-20T07:18:38.384Z,63.90
2018-03-20T07:21:05.975Z,63.90
2018-03-20T07:23:34.339Z,60.40
2018-03-20T07:26:01.936Z,60.30
2018-03-20T07:28:29.576Z,60.40
2018-03-20T07:30:57.142Z,60.00
2018-03-20T07:33:24.767Z,59.20
2018-03-20T07:35:52.351Z,58.40
2018-03-20T07:38:19.940Z,58.70
2018-03-20T07:40:48.298Z,57.80
2018-03-20T07:43:15.878Z,57.80
2018-03-20T07:45:43.474Z,57.80
2018-03-20T07:48:11.091Z,56.70
2018-03-20T07:50:38.678Z,56.50
2018-03-20T07:53:06.267Z,54.60
2018-03-20T07:55:33.843Z,52.80
2018-03-20T07:58:01.431Z,52.80
2018-03-20T08:00:29.018Z,52.30
2018-03-20T08:02:56.687Z,51.50
2018-03-20T08:05:24.262Z,50.00
2018-03-20T08:07:51.865Z,51.00
2018-03-20T08:10:19.447Z,49.40
2018-03-20T08:12:47.035Z,49.90
2018-03-20T08:15:14.663Z,49.80
2018-03-20T08:17:42.242Z,50.40
2018-03-20T08:20:09.822Z,49.70
2018-03-20T08:22:37.420Z,49.50
2018-03-20T08:25:05.003Z,49.50
2018-03-20T08:27:33.347Z,49.00
2018-03-20T08:30:00.927Z,49.00
2018-03-20T08:32:28.547Z,48.20
2018-03-20T08:34:56.131Z,48.70
2018-03-20T08:37:23.711Z,48.40
2018-03-20T08:39:51.294Z,46.90
2018-03-20T08:42:18.888Z,48.90
2018-03-20T08:44:46.497Z,47.20
2018-03-20T08:47:14.078Z,44.80
2018-03-20T08:49:41.659Z,46.00
2018-03-20T08:52:10.070Z,44.50
2018-03-20T08:54:37.712Z,44.40
2018-03-20T08:57:06.059Z,42.60
2018-03-20T08:59:33.638Z,42.60
2018-03-20T09:02:01.223Z,43.20
2018-03-20T09:04:29.569Z,44.20
2018-03-20T09:06:57.150Z,44.20
2018-03-20T09:09:24.754Z,42.50
2018-03-20T09:11:52.336Z,42.60
2018-03-20T09:14:19.927Z,41.00
2018-03-20T09:16:47.501Z,41.90
2018-03-20T09:19:15.083Z,41.70
2018-03-20T09:21:42.671Z,41.90
2018-03-20T09:24:10.251Z,41.00
2018-03-20T09:26:37.832Z,38.60
2018-03-20T09:29:05.416Z,41.10
2018-03-20T09:31:32.995Z,41.40
2018-03-20T09:34:00.571Z,39.00
2018-03-20T09:36:28.923Z,38.80
2018-03-20T09:38:56.507Z,38.80
2018-03-20T09:41:24.096Z,39.50
2018-03-20T09:43:52.443Z,35.70
2018-03-20T09:46:20.023Z,35.70
2018-03-20T09:48:47.602Z,36.10
2018-03-20T09:51:15.990Z,37.70
2018-03-20T09:53:44.328Z,36.70
2018-03-20T09:56:11.911Z,36.70
2018-03-20T09:58:39.491Z,35.40
2018-03-20T10:01:07.896Z,37.30
2018-03-20T10:03:35.480Z,37.30
2018-03-20T10:06:03.071Z,36.10
2018-03-20T10:08:30.667Z,36.30
2018-03-20T10:10:58.243Z,34.20
2018-03-20T10:13:26.600Z,34.70
2018-03-20T10:15:54.182Z,34.70
2018-03-20T10:18:22.530Z,36.60
2018-03-20T10:20:50.106Z,36.50
2018-03-20T10:23:17.688Z,35.00
2018-03-20T10:25:46.038Z,32.20
2018-03-20T10:28:13.623Z,32.20
2018-03-20T10:30:41.203Z,35.90
2018-03-20T10:33:09.546Z,39.00
2018-03-20T10:35:37.122Z,39.00
2018-03-20T10:38:04.706Z,38.20
2018-03-20T10:40:32.287Z,38.70
2018-03-20T10:43:00.641Z,35.00
2018-03-20T10:45:28.218Z,35.00
2018-03-20T10:47:55.797Z,36.20
2018-03-20T10:50:24.142Z,38.30
2018-03-20T10:52:51.725Z,38.30
2018-03-20T10:55:19.350Z,36.80
2018-03-20T10:57:46.935Z,36.80
2018-03-20T11:00:14.539Z,38.30
2018-03-20T11:02:48.503Z,39.60
2018-03-20T11:05:16.086Z,39.50
2018-03-20T11:07:43.667Z,37.50
2018-03-20T11:10:12.015Z,36.70
2018-03-20T11:12:39.604Z,36.70
2018-03-20T11:15:07.191Z,38.30
2018-03-20T11:17:35.550Z,38.70
2018-03-20T11:20:04.004Z,38.90
2018-03-20T11:22:31.619Z,38.90
2018-03-20T11:24:59.962Z,39.40
2018-03-20T11:27:27.542Z,39.40
2018-03-20T11:29:55.148Z,38.20
2018-03-20T11:32:22.786Z,38.10
2018-03-20T11:34:50.385Z,37.10
2018-03-20T11:37:17.963Z,38.50
2018-03-20T11:39:45.546Z,38.40
2018-03-20T11:42:13.124Z,36.70
2018-03-20T11:44:40.706Z,37.90
2018-03-20T11:47:08.308Z,39.20
2018-03-20T11:49:35.894Z,35.80
2018-03-20T11:52:03.551Z,36.70
2018-03-20T11:54:31.146Z,37.60
2018-03-20T11:56:58.731Z,38.50
2018-03-20T11:59:26.379Z,38.70
2018-03-20T12:01:53.960Z,41.30
2018-03-20T12:04:21.607Z,38.20
2018-03-20T12:06:49.960Z,40.50
2018-03-20T12:09:29.442Z,40.50
2018-03-20T12:11:57.064Z,41.10
2018-03-20T12:14:24.657Z,42.30
2018-03-20T12:16:52.315Z,40.50
2018-03-20T12:19:19.899Z,41.10
2018-03-20T12:21:47.500Z,39.50
2018-03-20T12:24:15.847Z,42.80
2018-03-20T12:26:43.466Z,42.80
2018-03-20T12:29:11.047Z,42.50
2018-03-20T12:31:38.632Z,42.70
2018-03-20T12:34:06.211Z,41.40
2018-03-20T12:36:33.795Z,41.70
2018-03-20T12:39:01.398Z,40.20
2018-03-20T12:41:28.985Z,38.80
2018-03-20T12:43:56.572Z,38.50
2018-03-20T12:46:24.150Z,40.20
2018-03-20T12:48:51.760Z,40.30
2018-03-20T12:51:19.338Z,42.00
2018-03-20T12:53:46.924Z,42.10
2018-03-20T12:56:14.515Z,40.30
2018-03-20T12:58:42.863Z,39.90
2018-03-20T13:01:10.462Z,39.90
2018-03-20T13:03:38.814Z,40.50
2018-03-20T13:06:06.401Z,40.50
2018-03-20T13:08:34.749Z,42.00
2018-03-20T13:11:02.335Z,41.90
2018-03-20T13:13:29.915Z,43.00
2018-03-20T13:15:58.263Z,41.40
2018-03-20T13:18:25.842Z,41.50
2018-03-20T13:20:53.708Z,41.50
2018-03-20T13:23:21.393Z,41.60
2018-03-20T13:25:48.988Z,41.10
2018-03-20T13:28:16.619Z,40.80
2018-03-20T13:30:44.235Z,38.20
2018-03-20T13:33:11.811Z,39.90
2018-03-20T13:35:39.410Z,40.30
2018-03-20T13:38:06.994Z,41.00
2018-03-20T13:40:35.376Z,43.30
2018-03-20T13:43:03.722Z,42.90
2018-03-20T13:45:31.311Z,42.80
2018-03-20T13:47:58.902Z,42.20
2018-03-20T13:50:26.519Z,42.10
2018-03-20T13:52:54.099Z,42.60
2018-03-20T13:55:21.722Z,41.90
2018-03-20T13:57:49.303Z,42.10
2018-03-20T14:00:16.906Z,42.50
2018-03-20T14:02:45.251Z,44.30
2018-03-20T14:05:12.891Z,44.00
2018-03-20T14:07:40.510Z,40.80
2018-03-20T14:10:08.096Z,44.20
2018-03-20T14:12:36.444Z,44.50
2018-03-20T14:15:04.055Z,44.40
2018-03-20T14:17:31.644Z,45.90
2018-03-20T14:19:59.254Z,46.50
2018-03-20T14:22:26.838Z,46.00
2018-03-20T14:24:55.187Z,46.10
2018-03-20T14:27:22.767Z,46.10
2018-03-20T14:29:50.354Z,44.30
2018-03-20T14:32:18.698Z,44.10
2018-03-20T14:34:46.284Z,44.10
2018-03-20T14:37:14.679Z,45.70
2018-03-20T14:39:43.027Z,45.50
2018-03-20T14:42:10.606Z,45.50
2018-03-20T14:44:38.198Z,47.10
2018-03-20T14:47:05.806Z,45.10
2018-03-20T14:49:33.388Z,45.40
2018-03-20T14:52:00.967Z,46.60
2018-03-20T14:54:28.550Z,46.00
2018-03-20T14:56:56.911Z,48.90
2018-03-20T14:59:24.549Z,48.30
2018-03-20T15:01:52.396Z,48.40
2018-03-20T15:04:19.992Z,48.70
2018-03-20T15:06:47.595Z,49.00
2018-03-20T15:09:15.942Z,49.40
2018-03-20T15:11:43.535Z,49.40
2018-03-20T15:14:11.882Z,48.50
2018-03-20T15:16:39.687Z,48.50
2018-03-20T15:19:08.051Z,49.90
2018-03-20T15:21:35.955Z,49.90
2018-03-20T15:24:03.550Z,50.00
2018-03-20T15:26:31.134Z,51.20
2018-03-20T15:28:58.739Z,50.80
2018-03-20T15:31:27.091Z,51.50
2018-03-20T15:33:54.673Z,51.50
2018-03-20T15:36:22.259Z,53.00
2018-03-20T15:38:50.611Z,54.70
2018-03-20T15:41:18.246Z,54.70
2018-03-20T15:43:45.839Z,54.00
2018-03-20T15:46:13.426Z,56.20
2018-03-20T15:48:41.777Z,54.60
2018-03-20T15:51:09.360Z,54.60
2018-03-20T15:53:36.939Z,54.80
2018-03-20T15:56:05.366Z,54.00
2018-03-20T15:58:32.991Z,54.00
2018-03-20T16:01:01.338Z,55.30
2018-03-20T16:03:28.927Z,55.30
2018-03-20T16:05:56.527Z,55.20
2018-03-20T16:08:24.111Z,56.30
2018-03-20T16:10:51.708Z,56.20
2018-03-20T16:13:19.342Z,57.00
2018-03-20T16:15:46.940Z,57.90
2018-03-20T16:18:14.532Z,58.70
2018-03-20T16:20:42.935Z,60.40
2018-03-20T16:23:10.598Z,60.40
2018-03-20T16:25:38.189Z,61.10
2018-03-20T16:28:05.824Z,61.90
2018-03-20T16:30:33.415Z,61.90
2018-03-20T16:33:01.019Z,63.00
2018-03-20T16:35:28.635Z,63.00
2018-03-20T16:37:56.231Z,63.50
2018-03-20T16:40:23.819Z,64.00
2018-03-20T16:42:51.440Z,65.20
2018-03-20T16:45:19.048Z,65.90
2018-03-20T16:47:46.655Z,67.10
2018-03-20T16:50:14.256Z,68.60
2018-03-20T16:52:41.852Z,69.50
2018-03-20T16:55:10.211Z,71.40
2018-03-20T16:57:37.816Z,71.50
2018-03-20T17:00:06.210Z,72.80
2018-03-20T17:02:33.802Z,72.80
2018-03-20T17:05:01.410Z,73.40
2018-03-20T17:07:29.770Z,74.90
2018-03-20T17:09:57.371Z,74.90
2018-03-20T17:12:25.728Z,76.80
2018-03-20T17:14:53.340Z,76.90
2018-03-20T17:17:20.943Z,77.10
2018-03-20T17:19:48.535Z,78.00
2018-03-20T17:22:16.123Z,79.20
2018-03-20T17:24:43.720Z,79.90
2018-03-20T17:27:11.311Z,81.00
2018-03-20T17:29:38.902Z,81.20
2018-03-20T17:32:07.251Z,82.90
2018-03-20T17:34:34.850Z,82.90
2018-03-20T17:37:03.211Z,83.50
2018-03-20T17:39:30.801Z,83.50
2018-03-20T17:41:59.155Z,84.60
2018-03-20T17:44:26.756Z,84.60
2018-03-20T17:46:54.377Z,85.00
2018-03-20T17:49:22.986Z,85.30
2018-03-20T17:51:50.596Z,85.60
2018-03-20T17:54:18.196Z,85.60
2018-03-20T17:56:46.686Z,85.60
2018-03-20T17:59:14.295Z,85.80
2018-03-20T18:01:41.922Z,85.90
2018-03-20T18:04:09.511Z,86.40
2018-03-20T18:06:37.866Z,87.20
2018-03-20T18:09:05.475Z,87.20
2018-03-20T18:11:33.063Z,87.10
2018-03-20T18:14:00.679Z,87.50
2018-03-20T18:16:28.270Z,87.70
2018-03-20T18:18:55.867Z,87.90
2018-03-20T18:21:23.484Z,88.40
2018-03-20T18:23:51.853Z,88.60
2018-03-20T18:26:19.453Z,88.60
2018-03-20T18:28:47.043Z,88.60
2018-03-20T18:31:14.622Z,88.20
2018-03-20T18:33:42.203Z,88.40
2018-03-20T18:36:09.819Z,88.60
2018-03-20T18:38:37.451Z,88.50
2018-03-20T18:41:05.817Z,89.20
2018-03-20T18:43:33.442Z,89.20
2018-03-20T18:46:01.026Z,89.30
2018-03-20T18:48:28.626Z,89.50
2018-03-20T18:50:56.211Z,89.80
2018-03-20T18:53:24.920Z,90.10
2018-03-20T18:55:52.515Z,90.10
2018-03-20T18:58:20.103Z,90.10
2018-03-20T19:00:47.703Z,90.20
2018-03-20T19:03:15.287Z,90.20
2018-03-20T19:05:42.878Z,90.30
2018-03-20T19:08:10.462Z,90.20
2018-03-20T19:10:38.051Z,90.20
2018-03-20T19:13:06.411Z,90.40
2018-03-20T19:15:34.022Z,90.40
2018-03-20T19:18:01.624Z,90.40
2018-03-20T19:20:29.215Z,90.30
2018-03-20T19:22:57.574Z,90.20
2018-03-20T19:25:25.163Z,90.20
2018-03-20T19:27:53.631Z,90.20
2018-03-20T19:30:21.367Z,90.20
2018-03-20T19:32:48.958Z,90.30
2018-03-20T19:35:16.559Z,90.40
2018-03-20T19:37:44.927Z,90.50
2018-03-20T19:40:13.323Z,90.70
2018-03-20T19:42:41.675Z,90.60
2018-03-20T19:45:10.186Z,90.60
2018-03-20T19:47:38.538Z,90.60
2018-03-20T19:50:06.130Z,90.60
2018-03-20T19:52:34.478Z,90.70
2018-03-20T19:55:02.096Z,90.70
2018-03-20T19:57:29.690Z,90.70
2018-03-20T19:59:57.287Z,90.70
2018-03-20T20:02:24.878Z,90.70
2018-03-20T20:04:53.226Z,90.90
2018-03-20T20:07:20.829Z,90.90
2018-03-20T20:09:48.431Z,90.90
2018-03-20T20:12:16.023Z,90.90
2018-03-20T20:14:43.634Z,91.00
2018-03-20T20:17:11.265Z,91.00
2018-03-20T20:19:38.850Z,91.00
2018-03-20T20:22:07.204Z,91.00
2018-03-20T20:24:34.791Z,91.10
2018-03-20T20:27:03.162Z,90.90
2018-03-20T20:29:30.746Z,90.90
2018-03-20T20:31:59.095Z,91.10
2018-03-20T20:34:26.692Z,91.10
2018-03-20T20:36:54.316Z,91.20
2018-03-20T20:39:21.907Z,91.20
2018-03-20T20:41:49.497Z,91.40
2018-03-20T20:44:17.092Z,91.40
2018-03-20T20:46:44.682Z,91.30
2018-03-20T20:49:12.277Z,91.40
2018-03-20T20:51:40.671Z,91.40
2018-03-20T20:54:08.254Z,91.40
2018-03-20T20:56:35.842Z,91.50
2018-03-20T20:59:03.435Z,91.60
2018-03-20T21:01:31.022Z,91.50
2018-03-20T21:03:59.382Z,91.60
2018-03-20T21:06:26.970Z,91.60
2018-03-20T21:08:55.343Z,91.40
2018-03-20T21:11:23.698Z,91.60
2018-03-20T21:13:51.286Z,91.60
2018-03-20T21:16:18.938Z,91.50
2018-03-20T21:18:46.526Z,91.50
2018-03-20T21:21:14.148Z,91.50
2018-03-20T21:23:41.739Z,91.50
2018-03-20T21:26:09.331Z,91.50
2018-03-20T21:28:37.687Z,91.60
2018-03-20T21:31:05.279Z,91.60
2018-03-20T21:33:33.629Z,91.50
2018-03-20T21:36:01.214Z,91.50
2018-03-20T21:38:29.583Z,91.70
2018-03-20T21:40:57.166Z,91.70
2018-03-20T21:43:25.535Z,91.80
2018-03-20T21:45:53.128Z,91.80
2018-03-20T21:48:20.787Z,91.80
2018-03-20T21:50:49.138Z,91.90
2018-03-20T21:53:16.732Z,91.90
2018-03-20T21:55:45.088Z,92.10
2018-03-20T21:58:12.679Z,92.10
2018-03-20T22:00:41.038Z,92.50
2018-03-20T22:03:08.630Z,92.50
2018-03-20T22:05:36.248Z,92.80
2018-03-20T22:08:03.843Z,92.60
2018-03-20T22:10:32.242Z,92.90
2018-03-20T22:13:00.743Z,92.90
2018-03-20T22:15:28.326Z,92.90
2018-03-20T22:17:55.911Z,93.00
2018-03-20T22:20:23.499Z,93.00
2018-03-20T22:22:51.091Z,93.10
2018-03-20T22:25:18.682Z,93.10
2018-03-20T22:27:46.280Z,93.00
2018-03-20T22:30:13.867Z,92.80
2018-03-20T22:32:42.215Z,92.80
2018-03-20T22:35:09.803Z,92.80
2018-03-20T22:37:37.394Z,92.80
2018-03-20T22:40:05.003Z,93.10
2018-03-20T22:42:32.594Z,92.90
2018-03-20T22:45:00.221Z,92.90
2018-03-20T22:47:27.895Z,92.60
2018-03-20T22:49:55.500Z,92.60
2018-03-20T22:52:23.904Z,92.90
2018-03-20T22:54:51.538Z,92.90
2018-03-20T22:57:19.144Z,92.80
2018-03-20T22:59:46.767Z,92.90
2018-03-20T23:02:14.360Z,92.40
2018-03-20T23:04:42.711Z,92.70
2018-03-20T23:07:10.303Z,92.70
2018-03-20T23:09:38.655Z,92.60
2018-03-20T23:12:06.258Z,92.60
2018-03-20T23:14:34.631Z,92.30
2018-03-20T23:17:02.986Z,92.30
2018-03-20T23:19:30.678Z,92.30
2018-03-20T23:21:59.036Z,92.60
2018-03-20T23:24:26.671Z,92.60
2018-03-20T23:26:54.256Z,92.60
2018-03-20T23:29:21.857Z,92.30
2018-03-20T23:31:50.215Z,92.30
2018-03-20T23:34:17.794Z,92.30
2018-03-20T23:36:45.375Z,92.20
2018-03-20T23:39:13.767Z,91.90
2018-03-20T23:41:41.347Z,92.00
2018-03-20T23:44:08.933Z,92.00
2018-03-20T23:46:36.515Z,92.20
2018-03-20T23:49:04.095Z,91.50
2018-03-20T23:51:31.678Z,91.50
2018-03-20T23:54:00.027Z,91.40
2018-03-20T23:56:27.619Z,91.40
2018-03-20T23:58:56.105Z,91.40
